Time;durP1;ratioP1;P1;durP2;ratioP2;P2;SDS_P1;SDS_P2;PMS_P1;PMS_P2;Temp;Humidity;BMP_temperature;BMP_pressure;BME280_temperature;BME280_humidity;BME280_pressure;Samples;Min_cycle;Max_cycle;Signal;HPM_P1;HPM_P2
2022/08/29 00:02:24;;;;;;;1.13;0.70;;;24.00;62.90;;;;;;5060045;28;48064;-70
2022/08/29 00:04:51;;;;;;;1.42;0.75;;;24.10;63.10;;;;;;5062381;28;45471;-69
2022/08/29 00:07:18;;;;;;;1.08;0.77;;;24.00;63.00;;;;;;5061224;28;45556;-69
2022/08/29 00:09:44;;;;;;;1.08;0.80;;;24.10;63.10;;;;;;5063783;28;45545;-69
2022/08/29 00:12:11;;;;;;;2.50;1.00;;;24.10;63.00;;;;;;5062239;28;47240;-69
2022/08/29 00:14:39;;;;;;;2.42;0.70;;;24.10;63.10;;;;;;5061774;28;45293;-69
2022/08/29 00:17:06;;;;;;;2.78;0.95;;;24.00;62.90;;;;;;5061370;28;45568;-70
2022/08/29 00:19:33;;;;;;;2.85;1.00;;;24.00;62.80;;;;;;5061266;28;45648;-69
2022/08/29 00:21:59;;;;;;;1.42;0.90;;;24.00;62.90;;;;;;5058200;28;46265;-69
2022/08/29 00:24:26;;;;;;;1.27;0.93;;;24.00;62.60;;;;;;5060821;28;45320;-69
2022/08/29 00:26:53;;;;;;;1.30;0.80;;;24.00;62.60;;;;;;5061308;28;45239;-69
2022/08/29 00:29:20;;;;;;;1.30;0.70;;;24.00;62.60;;;;;;5061168;28;45601;-69
2022/08/29 00:31:48;;;;;;;1.83;0.70;;;24.00;62.80;;;;;;5062070;28;45467;-69
2022/08/29 00:34:15;;;;;;;1.38;0.90;;;24.00;62.70;;;;;;5060572;28;45462;-69
2022/08/29 00:36:41;;;;;;;1.60;0.70;;;24.00;62.70;;;;;;5061468;28;45289;-69
2022/08/29 00:39:08;;;;;;;1.52;0.90;;;24.10;62.90;;;;;;5062319;28;45328;-70
2022/08/29 00:41:35;;;;;;;1.40;0.93;;;24.00;62.80;;;;;;5061858;28;47148;-69
2022/08/29 00:44:02;;;;;;;1.58;0.73;;;24.00;62.80;;;;;;5063606;28;45261;-70
2022/08/29 00:46:50;;;;;;;1.98;1.00;;;24.00;62.80;;;;;;5060471;28;45243;-69
2022/08/29 00:49:32;;;;;;;1.75;0.80;;;24.00;62.70;;;;;;5059832;28;45592;-69
2022/08/29 00:52:04;;;;;;;1.67;0.80;;;24.00;62.70;;;;;;5060800;28;46083;-69
2022/08/29 00:54:32;;;;;;;2.00;0.70;;;24.00;62.70;;;;;;5058151;28;45332;-70
2022/08/29 00:56:59;;;;;;;1.38;0.85;;;24.00;62.60;;;;;;5060426;28;45747;-69
2022/08/29 00:59:31;;;;;;;1.33;0.70;;;24.00;62.60;;;;;;5054289;28;45392;-69
2022/08/29 01:02:00;;;;;;;1.13;0.80;;;24.00;62.60;;;;;;5061732;28;46159;-69
2022/08/29 01:04:27;;;;;;;0.80;0.70;;;24.00;62.60;;;;;;5059470;28;45297;-69
2022/08/29 01:06:54;;;;;;;1.70;0.85;;;24.00;62.60;;;;;;5061937;28;45293;-69
2022/08/29 01:09:22;;;;;;;2.05;0.70;;;24.00;62.50;;;;;;5061046;28;45574;-69
2022/08/29 01:14:34;;;;;;;1.02;0.70;;;24.00;62.50;;;;;;5060893;28;45429;-69
2022/08/29 01:17:03;;;;;;;1.55;0.65;;;24.00;62.60;;;;;;5063813;28;45412;-69
2022/08/29 01:19:42;;;;;;;1.23;0.65;;;24.00;62.70;;;;;;5061908;28;45296;-69
2022/08/29 01:22:33;;;;;;;2.58;1.00;;;24.00;62.40;;;;;;5061173;28;46413;-69
2022/08/29 01:25:05;;;;;;;1.85;0.80;;;24.00;62.60;;;;;;5043529;28;46058;-68
2022/08/29 01:27:36;;;;;;;1.23;0.70;;;23.90;62.50;;;;;;5062446;28;45373;-69
2022/08/29 01:30:05;;;;;;;1.05;0.70;;;23.90;62.70;;;;;;5059969;28;45292;-69
2022/08/29 01:32:32;;;;;;;2.97;0.90;;;23.90;62.60;;;;;;5061523;28;46604;-69
2022/08/29 01:34:59;;;;;;;2.35;0.80;;;23.90;62.70;;;;;;5080947;28;45396;-69
2022/08/29 01:37:31;;;;;;;1.35;0.90;;;23.90;62.70;;;;;;5073956;28;45631;-69
2022/08/29 01:39:58;;;;;;;1.30;0.85;;;23.90;62.60;;;;;;5042406;28;45265;-69
2022/08/29 01:42:26;;;;;;;1.10;0.65;;;23.90;62.80;;;;;;5044026;28;47214;-69
2022/08/29 01:44:57;;;;;;;0.75;0.55;;;23.90;62.80;;;;;;5044683;28;45397;-69
2022/08/29 01:47:26;;;;;;;0.93;0.60;;;23.90;62.70;;;;;;5044558;28;45283;-69
2022/08/29 01:49:53;;;;;;;1.40;0.93;;;23.90;62.80;;;;;;5046559;28;45337;-69
2022/08/29 01:52:21;;;;;;;0.85;0.70;;;23.90;62.70;;;;;;5063038;28;46605;-69
2022/08/29 01:54:48;;;;;;;1.25;0.75;;;23.90;62.50;;;;;;5062901;28;45297;-69
2022/08/29 01:57:16;;;;;;;1.38;0.75;;;23.90;62.40;;;;;;5063941;28;45313;-69
2022/08/29 01:59:45;;;;;;;1.98;0.80;;;23.90;62.40;;;;;;5064155;28;45531;-69
2022/08/29 02:02:15;;;;;;;1.42;0.80;;;23.90;62.30;;;;;;5063718;28;45457;-70
2022/08/29 02:04:43;;;;;;;1.27;0.80;;;23.90;62.30;;;;;;5057885;28;45393;-69
2022/08/29 02:07:09;;;;;;;1.80;0.70;;;23.90;62.30;;;;;;5063912;28;45471;-70
2022/08/29 02:09:36;;;;;;;1.60;0.90;;;23.90;62.30;;;;;;5063534;28;45470;-69
2022/08/29 02:12:05;;;;;;;1.58;0.90;;;23.90;62.40;;;;;;5063944;28;47698;-69
2022/08/29 02:14:33;;;;;;;1.52;0.70;;;23.90;62.20;;;;;;5063957;28;45423;-69
2022/08/29 02:17:01;;;;;;;1.90;0.90;;;23.90;62.10;;;;;;5064957;28;45412;-69
2022/08/29 02:19:28;;;;;;;1.02;0.70;;;23.90;61.90;;;;;;5063261;28;45367;-69
2022/08/29 02:21:56;;;;;;;0.88;0.57;;;23.90;61.90;;;;;;5064158;28;47044;-69
2022/08/29 02:24:23;;;;;;;1.27;0.82;;;23.90;61.90;;;;;;5067863;28;45358;-69
2022/08/29 02:26:50;;;;;;;0.68;0.60;;;23.90;61.90;;;;;;5063968;28;45244;-69
2022/08/29 02:29:16;;;;;;;1.30;0.70;;;23.90;62.90;;;;;;5064002;28;45476;-69
2022/08/29 02:31:43;;;;;;;0.85;0.70;;;23.90;61.70;;;;;;5064899;28;46364;-69
2022/08/29 02:34:11;;;;;;;1.80;0.60;;;23.90;61.70;;;;;;5064435;28;45318;-69
2022/08/29 02:36:38;;;;;;;0.75;0.70;;;23.90;61.70;;;;;;5064750;28;45395;-69
2022/08/29 02:39:06;;;;;;;0.65;0.60;;;23.90;61.70;;;;;;5065174;28;45505;-69
2022/08/29 02:41:33;;;;;;;0.95;0.68;;;23.90;61.60;;;;;;5065008;28;45491;-69
2022/08/29 02:44:00;;;;;;;0.88;0.60;;;23.90;61.60;;;;;;5064168;28;45272;-69
2022/08/29 02:46:26;;;;;;;1.33;0.60;;;23.90;61.60;;;;;;5062719;28;45480;-69
2022/08/29 02:48:54;;;;;;;1.30;0.80;;;23.90;61.70;;;;;;5064721;28;45335;-69
2022/08/29 02:51:26;;;;;;;0.55;0.50;;;23.90;61.70;;;;;;5064414;28;47404;-69
2022/08/29 02:53:53;;;;;;;1.08;0.82;;;23.90;61.80;;;;;;5061798;28;46539;-69
2022/08/29 02:56:20;;;;;;;1.33;0.60;;;23.80;61.70;;;;;;5064660;28;45381;-69
2022/08/29 02:58:48;;;;;;;1.35;0.80;;;23.80;61.70;;;;;;5065083;28;45476;-69
2022/08/29 03:01:15;;;;;;;0.70;0.60;;;23.90;61.70;;;;;;5061670;28;46541;-69
2022/08/29 03:03:43;;;;;;;0.77;0.60;;;23.90;61.70;;;;;;5056875;28;45473;-69
2022/08/29 03:06:10;;;;;;;0.98;0.63;;;23.80;61.60;;;;;;5063403;28;45373;-70
2022/08/29 03:08:39;;;;;;;1.90;0.70;;;23.80;61.50;;;;;;5062129;28;45505;-69
2022/08/29 03:11:06;;;;;;;2.10;0.88;;;23.90;61.50;;;;;;5063046;28;47761;-69
2022/08/29 03:13:33;;;;;;;1.95;0.80;;;23.90;61.40;;;;;;5063732;28;45426;-69
2022/08/29 03:16:01;;;;;;;1.00;0.60;;;23.80;61.20;;;;;;5063313;28;45644;-69
2022/08/29 03:18:28;;;;;;;1.00;0.80;;;23.80;61.10;;;;;;5054610;28;45537;-69
2022/08/29 03:20:56;;;;;;;0.98;0.70;;;23.90;61.20;;;;;;5060764;28;45435;-70
2022/08/29 03:23:23;;;;;;;0.73;0.70;;;23.80;61.00;;;;;;5063384;28;45261;-70
2022/08/29 03:25:51;;;;;;;2.85;0.80;;;23.80;60.90;;;;;;5062518;28;45333;-69
2022/08/29 03:28:18;;;;;;;1.10;0.70;;;23.80;60.90;;;;;;5061749;28;45857;-69
2022/08/29 03:30:46;;;;;;;1.10;0.80;;;23.80;61.00;;;;;;5063148;28;47559;-69
2022/08/29 03:33:13;;;;;;;1.25;0.85;;;23.80;60.90;;;;;;5063137;28;45348;-69
2022/08/29 03:35:40;;;;;;;1.77;0.75;;;23.80;61.00;;;;;;5062568;28;45424;-69
2022/08/29 03:38:06;;;;;;;0.90;0.80;;;23.80;61.00;;;;;;5061694;28;45738;-70
2022/08/29 03:40:34;;;;;;;1.15;0.73;;;23.80;61.00;;;;;;5059265;28;47307;-69
2022/08/29 03:43:03;;;;;;;1.67;0.98;;;23.80;61.10;;;;;;5062449;28;45954;-69
2022/08/29 03:45:30;;;;;;;0.75;0.70;;;23.80;61.20;;;;;;5062679;28;45443;-69
2022/08/29 03:47:57;;;;;;;0.80;0.70;;;23.80;61.10;;;;;;5063192;28;45290;-70
2022/08/29 03:50:23;;;;;;;1.02;0.77;;;23.80;61.10;;;;;;5060336;28;46094;-69
2022/08/29 03:52:51;;;;;;;1.95;0.82;;;23.80;61.00;;;;;;5061301;28;45206;-69
2022/08/29 03:55:19;;;;;;;1.20;0.80;;;23.70;60.80;;;;;;5061393;28;45410;-70
2022/08/29 03:57:46;;;;;;;1.38;0.90;;;23.80;61.00;;;;;;5063586;28;45412;-69
2022/08/29 04:00:17;;;;;;;1.52;0.75;;;23.80;61.00;;;;;;5062406;28;46516;-69
2022/08/29 04:02:45;;;;;;;1.70;0.90;;;23.80;61.00;;;;;;5062807;28;45473;-69
2022/08/29 04:05:13;;;;;;;1.30;0.88;;;23.70;60.80;;;;;;5062573;28;45315;-69
2022/08/29 04:07:44;;;;;;;0.70;0.70;;;23.70;60.80;;;;;;5057133;28;45477;-69
2022/08/29 04:10:13;;;;;;;1.02;0.73;;;23.70;60.80;;;;;;5063479;28;45586;-69
2022/08/29 04:12:40;;;;;;;1.45;0.80;;;23.70;60.80;;;;;;5057352;28;46113;-69
2022/08/29 04:15:08;;;;;;;1.02;0.73;;;23.70;60.80;;;;;;5042724;28;45388;-69
2022/08/29 04:17:37;;;;;;;1.33;0.65;;;23.70;60.80;;;;;;5054508;28;45590;-69
2022/08/29 04:20:06;;;;;;;1.35;0.82;;;23.70;60.90;;;;;;5061900;28;46582;-69
2022/08/29 04:22:34;;;;;;;1.50;0.90;;;23.70;60.90;;;;;;5062215;28;45719;-69
2022/08/29 04:25:01;;;;;;;1.85;1.00;;;23.70;60.80;;;;;;5063960;28;45294;-69
2022/08/29 04:27:28;;;;;;;2.25;0.88;;;23.70;60.90;;;;;;5062570;28;45373;-69
2022/08/29 04:29:55;;;;;;;1.08;0.90;;;23.70;61.00;;;;;;5058590;28;47504;-69
2022/08/29 04:32:21;;;;;;;1.35;0.80;;;23.70;61.10;;;;;;5059324;28;45307;-69
2022/08/29 04:34:50;;;;;;;0.82;0.68;;;23.70;61.00;;;;;;5061562;28;45363;-69
2022/08/29 04:37:16;;;;;;;1.83;0.88;;;23.70;61.00;;;;;;5062286;28;45403;-69
2022/08/29 04:39:43;;;;;;;1.80;0.80;;;23.70;61.10;;;;;;5061614;28;47714;-69
2022/08/29 04:42:11;;;;;;;0.90;0.80;;;23.70;61.00;;;;;;5062232;28;46130;-69
2022/08/29 04:44:38;;;;;;;1.40;0.90;;;23.70;61.00;;;;;;5060955;28;45266;-69
2022/08/29 04:47:05;;;;;;;1.35;0.80;;;23.70;60.90;;;;;;5059944;28;45607;-70
2022/08/29 04:49:32;;;;;;;1.92;1.15;;;23.70;60.90;;;;;;5061377;28;48038;-69
2022/08/29 04:52:00;;;;;;;0.90;0.80;;;23.70;61.00;;;;;;5061467;28;45332;-69
2022/08/29 04:54:27;;;;;;;1.63;0.80;;;23.70;61.00;;;;;;5057532;28;45508;-69
2022/08/29 04:56:54;;;;;;;1.65;0.82;;;23.70;61.00;;;;;;5064212;28;45490;-69
2022/08/29 04:59:21;;;;;;;1.65;0.80;;;23.70;61.00;;;;;;5061384;28;45435;-69
2022/08/29 05:01:48;;;;;;;0.98;0.73;;;23.70;61.00;;;;;;5060752;28;45776;-69
2022/08/29 05:04:14;;;;;;;1.42;0.90;;;23.70;61.00;;;;;;5053606;28;45411;-69
2022/08/29 05:06:42;;;;;;;1.10;0.70;;;23.70;61.00;;;;;;5056397;28;45287;-69
2022/08/29 05:09:10;;;;;;;1.50;0.88;;;23.70;61.00;;;;;;5061461;28;47365;-69
2022/08/29 05:11:38;;;;;;;1.00;0.60;;;23.70;61.00;;;;;;5059973;28;45402;-69
2022/08/29 05:14:06;;;;;;;1.40;0.70;;;23.70;61.00;;;;;;5062521;28;45302;-69
2022/08/29 05:16:36;;;;;;;1.75;1.00;;;23.70;60.90;;;;;;5061110;28;45399;-69
2022/08/29 05:19:05;;;;;;;1.73;0.82;;;23.70;60.90;;;;;;5065076;28;47724;-69
2022/08/29 05:21:35;;;;;;;1.55;0.90;;;23.70;60.80;;;;;;5061351;28;45708;-69
2022/08/29 05:24:02;;;;;;;0.88;0.70;;;23.70;60.80;;;;;;5064319;28;45820;-69
2022/08/29 05:26:32;;;;;;;1.65;0.73;;;23.70;60.80;;;;;;5061732;28;45553;-69
2022/08/29 05:28:59;;;;;;;0.98;0.70;;;23.70;61.80;;;;;;5061614;28;45343;-69
2022/08/29 05:31:26;;;;;;;1.40;0.80;;;23.70;60.80;;;;;;5065091;28;45336;-70
2022/08/29 05:33:53;;;;;;;1.58;0.95;;;23.70;61.00;;;;;;5064204;28;45360;-70
2022/08/29 05:36:20;;;;;;;1.60;1.10;;;23.70;61.00;;;;;;5060742;28;45296;-70
2022/08/29 05:38:47;;;;;;;1.52;1.00;;;23.70;60.80;;;;;;5060575;28;46290;-70
2022/08/29 05:41:13;;;;;;;1.92;1.00;;;23.70;61.40;;;;;;5063811;28;45451;-69
2022/08/29 05:43:42;;;;;;;1.27;0.98;;;23.70;61.20;;;;;;5064718;28;45379;-69
2022/08/29 05:46:10;;;;;;;1.23;0.75;;;23.70;62.20;;;;;;5061430;28;45401;-69
2022/08/29 05:48:39;;;;;;;1.25;0.80;;;23.70;61.30;;;;;;5066573;28;48054;-69
2022/08/29 05:51:06;;;;;;;1.63;0.95;;;23.70;61.20;;;;;;5059886;28;45791;-70
2022/08/29 05:53:34;;;;;;;1.75;0.75;;;23.70;61.30;;;;;;5060085;28;45548;-69
2022/08/29 05:56:01;;;;;;;4.32;1.10;;;23.70;61.70;;;;;;5062573;28;45588;-69
2022/08/29 05:58:28;;;;;;;0.93;0.73;;;23.80;62.10;;;;;;5060586;28;48654;-69
2022/08/29 06:00:56;;;;;;;0.98;0.70;;;23.80;61.90;;;;;;5065528;28;45711;-69
2022/08/29 06:03:23;;;;;;;3.13;0.95;;;23.70;61.60;;;;;;5064421;28;45523;-68
2022/08/29 06:05:51;;;;;;;1.60;0.90;;;23.80;61.70;;;;;;5065227;28;45465;-69
2022/08/29 06:08:19;;;;;;;1.90;1.20;;;23.80;61.80;;;;;;5065440;28;45206;-68
2022/08/29 06:10:46;;;;;;;1.48;0.93;;;23.80;61.80;;;;;;5064062;28;45454;-69
2022/08/29 06:13:13;;;;;;;1.60;0.95;;;23.80;61.80;;;;;;5065733;28;45417;-69
2022/08/29 06:15:43;;;;;;;1.95;0.93;;;23.80;61.60;;;;;;5064279;28;45337;-70
2022/08/29 06:18:12;;;;;;;1.65;1.02;;;23.80;61.10;;;;;;5052390;28;48038;-69
2022/08/29 06:20:39;;;;;;;1.23;0.77;;;23.80;60.80;;;;;;5060240;28;45482;-69
2022/08/29 06:23:06;;;;;;;1.55;1.10;;;23.80;60.80;;;;;;5063371;28;45360;-69
2022/08/29 06:25:33;;;;;;;2.20;1.00;;;23.80;60.70;;;;;;5062425;28;46325;-69
2022/08/29 06:28:00;;;;;;;1.65;1.00;;;23.80;60.60;;;;;;5061676;28;47864;-69
2022/08/29 06:30:27;;;;;;;1.45;0.90;;;23.80;61.00;;;;;;5059680;28;46121;-69
2022/08/29 06:32:54;;;;;;;1.40;1.10;;;23.80;61.30;;;;;;5060884;28;45565;-69
2022/08/29 06:35:22;;;;;;;2.38;1.00;;;23.80;61.50;;;;;;5063291;28;45417;-69
2022/08/29 06:37:48;;;;;;;2.55;1.10;;;23.80;61.70;;;;;;5061660;28;46101;-69
2022/08/29 06:40:15;;;;;;;3.67;1.13;;;23.80;61.80;;;;;;5059712;28;45423;-69
2022/08/29 06:42:42;;;;;;;3.42;0.98;;;23.80;61.90;;;;;;5053480;28;45623;-69
2022/08/29 06:45:10;;;;;;;10.73;2.67;;;23.90;62.00;;;;;;5057972;28;45554;-67
2022/08/29 06:47:36;;;;;;;13.38;2.42;;;19.80;70.70;;;;;;5055004;28;45500;-68
2022/08/29 06:50:05;;;;;;;13.52;2.97;;;16.60;87.30;;;;;;5059032;28;45444;-68
2022/08/29 06:52:33;;;;;;;16.50;2.63;;;15.70;92.30;;;;;;5062513;28;45419;-67
2022/08/29 06:55:00;;;;;;;6.95;2.72;;;15.50;93.70;;;;;;5060487;28;45438;-67
2022/08/29 06:57:27;;;;;;;14.82;2.97;;;15.50;94.60;;;;;;5060058;28;46597;-68
2022/08/29 06:59:53;;;;;;;17.15;2.90;;;15.50;94.50;;;;;;5063034;28;45763;-68
2022/08/29 07:02:20;;;;;;;11.20;3.10;;;15.70;94.70;;;;;;5061433;28;45490;-65
2022/08/29 07:04:47;;;;;;;8.90;2.90;;;15.90;94.10;;;;;;5062763;28;45494;-65
2022/08/29 07:07:14;;;;;;;13.45;2.90;;;15.90;93.50;;;;;;5062481;28;45485;-65
2022/08/29 07:09:43;;;;;;;9.27;2.83;;;15.90;93.10;;;;;;5063700;28;45577;-65
2022/08/29 07:12:10;;;;;;;8.43;2.42;;;16.00;92.80;;;;;;5063062;28;45612;-66
2022/08/29 07:14:36;;;;;;;10.30;2.80;;;16.10;92.40;;;;;;5066120;28;45349;-65
2022/08/29 07:17:03;;;;;;;9.23;3.22;;;16.10;92.30;;;;;;5062983;28;47319;-66
2022/08/29 07:19:30;;;;;;;7.20;2.95;;;16.20;92.20;;;;;;5057287;28;45976;-66
2022/08/29 07:21:59;;;;;;;12.50;2.88;;;16.10;92.40;;;;;;5058500;28;45368;-66
2022/08/29 07:24:25;;;;;;;11.57;3.45;;;16.20;92.70;;;;;;5062337;28;45336;-67
2022/08/29 07:26:53;;;;;;;6.10;2.53;;;16.30;92.60;;;;;;5064022;28;46094;-66
2022/08/29 07:29:22;;;;;;;8.82;2.67;;;16.40;92.10;;;;;;5062838;28;45362;-66
2022/08/29 07:31:49;;;;;;;10.13;3.17;;;16.40;92.00;;;;;;5061586;28;45267;-65
2022/08/29 07:34:16;;;;;;;9.25;2.88;;;16.40;92.00;;;;;;5062237;28;45548;-66
2022/08/29 07:36:43;;;;;;;12.27;3.00;;;16.60;91.30;;;;;;5062159;28;45340;-65
2022/08/29 07:39:13;;;;;;;8.35;2.58;;;16.70;91.50;;;;;;5062707;28;45281;-66
2022/08/29 07:41:41;;;;;;;10.38;2.50;;;16.80;91.10;;;;;;5064281;28;45536;-66
2022/08/29 07:44:11;;;;;;;10.07;2.85;;;16.80;90.70;;;;;;5061547;28;45514;-65
2022/08/29 07:46:38;;;;;;;11.02;3.38;;;16.90;90.50;;;;;;5062701;28;46390;-66
2022/08/29 07:49:05;;;;;;;10.48;2.40;;;17.10;90.50;;;;;;5065214;28;45325;-65
2022/08/29 07:51:33;;;;;;;10.15;2.53;;;17.30;88.90;;;;;;5060923;28;45588;-66
2022/08/29 07:54:00;;;;;;;10.10;2.20;;;17.40;88.90;;;;;;5061602;28;45404;-66
2022/08/29 07:56:29;;;;;;;9.30;2.13;;;17.50;86.40;;;;;;5052022;28;48150;-66
2022/08/29 07:58:59;;;;;;;10.73;2.22;;;17.50;86.30;;;;;;5059955;28;45478;-66
2022/08/29 08:01:27;;;;;;;6.65;2.30;;;17.60;85.30;;;;;;5056637;28;45326;-66
2022/08/29 08:03:54;;;;;;;9.50;2.25;;;17.60;85.50;;;;;;5064169;28;45518;-65
2022/08/29 08:06:23;;;;;;;7.65;1.92;;;17.50;85.50;;;;;;5062585;28;47042;-66
2022/08/29 08:08:50;;;;;;;6.13;2.58;;;17.60;85.20;;;;;;5062411;28;45250;-65
2022/08/29 08:11:18;;;;;;;6.75;1.95;;;17.60;84.10;;;;;;5063418;28;45273;-66
2022/08/29 08:13:45;;;;;;;10.50;2.28;;;17.80;84.20;;;;;;5062835;28;45255;-66
2022/08/29 08:16:15;;;;;;;8.07;1.50;;;17.80;83.50;;;;;;5062971;28;48297;-66
2022/08/29 08:18:44;;;;;;;10.27;2.22;;;18.20;80.80;;;;;;5062661;28;45312;-65
2022/08/29 08:21:12;;;;;;;8.45;2.10;;;18.20;81.70;;;;;;5065159;28;45388;-65
2022/08/29 08:23:39;;;;;;;8.73;1.90;;;17.70;84.10;;;;;;5062326;28;45310;-65
2022/08/29 08:26:06;;;;;;;9.40;2.42;;;18.50;81.70;;;;;;5061766;28;46699;-65
2022/08/29 08:28:34;;;;;;;9.65;2.33;;;18.40;79.10;;;;;;5062390;28;45427;-65
2022/08/29 08:31:01;;;;;;;6.93;1.83;;;18.10;80.70;;;;;;5061017;28;45422;-66
2022/08/29 08:33:28;;;;;;;5.40;1.40;;;18.10;80.70;;;;;;5055236;28;45326;-65
2022/08/29 08:35:57;;;;;;;6.28;1.80;;;18.40;78.00;;;;;;5061514;28;47325;-66
2022/08/29 08:38:23;;;;;;;5.47;1.80;;;18.40;76.80;;;;;;5065511;28;45427;-66
2022/08/29 08:41:00;;;;;;;8.65;2.20;;;18.40;77.50;;;;;;5061906;28;45458;-65
2022/08/29 08:43:42;;;;;;;7.45;1.83;;;18.20;78.00;;;;;;5053900;28;45568;-65
2022/08/29 08:46:09;;;;;;;11.35;2.35;;;18.50;77.80;;;;;;5059724;28;45273;-66
2022/08/29 08:48:39;;;;;;;5.70;1.83;;;18.60;76.40;;;;;;5061746;28;45336;-65
2022/08/29 08:51:13;;;;;;;6.10;1.95;;;18.50;76.90;;;;;;5060522;28;45300;-66
2022/08/29 08:53:43;;;;;;;11.25;2.03;;;18.50;77.20;;;;;;5059107;28;45323;-65
2022/08/29 08:56:15;;;;;;;5.43;1.95;;;18.60;79.70;;;;;;5060437;28;46611;-66
2022/08/29 08:58:49;;;;;;;6.40;2.28;;;19.00;76.50;;;;;;5061864;28;45288;-65
2022/08/29 09:01:21;;;;;;;7.63;1.77;;;18.90;74.90;;;;;;5062243;28;45424;-66
2022/08/29 09:04:26;;;;;;;8.43;2.05;;;18.60;74.50;;;;;;5061692;28;45334;-66
2022/08/29 09:07:04;;;;;;;7.70;1.95;;;18.50;77.00;;;;;;4978002;28;46283;-66
2022/08/29 09:09:42;;;;;;;7.32;1.88;;;18.90;77.30;;;;;;5033202;28;45332;-66
2022/08/29 09:12:18;;;;;;;9.88;1.98;;;19.10;72.40;;;;;;5062807;28;45334;-65
2022/08/29 09:14:57;;;;;;;9.02;2.08;;;18.60;73.00;;;;;;5061951;28;45181;-66
2022/08/29 09:17:29;;;;;;;4.15;1.73;;;18.70;74.60;;;;;;5060913;28;46237;-66
2022/08/29 09:19:57;;;;;;;9.43;1.80;;;19.80;76.70;;;;;;5062195;28;45650;-66
2022/08/29 09:22:29;;;;;;;12.55;1.98;;;19.80;71.40;;;;;;5061840;28;45347;-66
2022/08/29 09:25:00;;;;;;;16.80;1.70;;;19.40;71.00;;;;;;5061879;28;45291;-67
2022/08/29 09:27:35;;;;;;;5.20;1.75;;;19.00;72.80;;;;;;5050556;28;48082;-66
2022/08/29 09:30:07;;;;;;;5.60;1.88;;;18.90;71.90;;;;;;5062317;28;45203;-66
2022/08/29 09:32:50;;;;;;;3.75;1.52;;;18.60;73.00;;;;;;5053857;28;45337;-66
2022/08/29 09:35:23;;;;;;;6.95;1.80;;;18.80;72.60;;;;;;5058122;28;45433;-66
2022/08/29 09:38:00;;;;;;;5.80;1.85;;;18.60;73.20;;;;;;5060552;28;46390;-66
2022/08/29 09:40:47;;;;;;;8.27;2.20;;;18.40;73.80;;;;;;5045432;28;45707;-66
2022/08/29 09:43:22;;;;;;;6.97;2.03;;;18.60;74.90;;;;;;5059552;28;45478;-66
2022/08/29 09:46:16;;;;;;;12.98;1.73;;;18.80;72.80;;;;;;5061701;28;45407;-66
2022/08/29 09:48:45;;;;;;;8.75;2.35;;;18.80;73.10;;;;;;5055787;28;45376;-66
2022/08/29 09:51:23;;;;;;;5.57;2.17;;;19.10;72.00;;;;;;5059363;28;45371;-66
2022/08/29 09:53:52;;;;;;;9.95;1.77;;;19.10;71.00;;;;;;5061222;28;45412;-66
2022/08/29 09:56:22;;;;;;;5.18;1.60;;;19.00;71.70;;;;;;5051224;28;45396;-67
2022/08/29 09:58:59;;;;;;;9.45;2.08;;;19.20;70.90;;;;;;5061969;28;46669;-66
2022/08/29 10:01:26;;;;;;;3.17;1.42;;;19.40;73.20;;;;;;5059820;28;45282;-66
2022/08/29 10:03:56;;;;;;;10.68;1.70;;;20.20;68.20;;;;;;5064352;28;45365;-66
2022/08/29 10:06:26;;;;;;;6.57;1.60;;;19.70;68.70;;;;;;5064801;28;45302;-66
2022/08/29 10:09:01;;;;;;;7.00;1.70;;;20.10;67.80;;;;;;5064240;28;45759;-66
2022/08/29 10:11:35;;;;;;;5.47;1.98;;;19.70;68.70;;;;;;5055830;28;45790;-66
2022/08/29 10:14:05;;;;;;;5.38;1.88;;;19.40;69.60;;;;;;5064146;28;45354;-66
2022/08/29 10:16:40;;;;;;;6.05;1.80;;;19.60;69.20;;;;;;5065126;28;45310;-66
2022/08/29 10:19:12;;;;;;;8.73;1.85;;;19.60;69.10;;;;;;5064544;28;45489;-66
2022/08/29 10:21:46;;;;;;;6.30;2.15;;;19.70;69.10;;;;;;5065893;28;45454;-66
2022/08/29 10:24:46;;;;;;;6.22;1.83;;;19.70;68.40;;;;;;5062074;28;45529;-66
2022/08/29 10:27:24;;;;;;;6.82;1.80;;;19.90;67.00;;;;;;5062163;28;45287;-66
2022/08/29 10:30:03;;;;;;;9.98;2.28;;;19.80;67.70;;;;;;5065185;28;46406;-66
2022/08/29 10:32:46;;;;;;;7.93;2.13;;;19.60;68.40;;;;;;5063336;28;45378;-66
2022/08/29 10:35:17;;;;;;;8.13;2.00;;;19.60;69.40;;;;;;5063368;28;45612;-66
2022/08/29 10:37:52;;;;;;;3.90;1.88;;;19.70;68.90;;;;;;5067806;28;45377;-66
2022/08/29 10:40:25;;;;;;;11.20;2.38;;;20.00;68.00;;;;;;5062903;28;46304;-66
2022/08/29 10:43:01;;;;;;;9.65;1.85;;;20.00;67.20;;;;;;5059757;28;46336;-67
2022/08/29 10:45:39;;;;;;;6.60;1.85;;;20.10;66.60;;;;;;5063155;28;45602;-66
2022/08/29 10:48:12;;;;;;;6.68;1.77;;;20.50;68.20;;;;;;5064999;28;45203;-66
2022/08/29 10:50:46;;;;;;;6.15;1.70;;;21.00;67.50;;;;;;5067080;28;47147;-67
2022/08/29 10:53:18;;;;;;;4.90;1.90;;;21.40;65.70;;;;;;5063577;28;46102;-67
2022/08/29 10:55:54;;;;;;;6.30;2.00;;;21.30;65.00;;;;;;5061674;28;45449;-66
2022/08/29 10:58:44;;;;;;;5.03;1.85;;;21.30;65.90;;;;;;5063797;28;45360;-67
2022/08/29 11:01:21;;;;;;;5.78;2.17;;;21.40;65.20;;;;;;5062917;28;47039;-67
2022/08/29 11:03:57;;;;;;;3.83;1.20;;;21.50;65.90;;;;;;5058059;28;45370;-67
2022/08/29 11:06:29;;;;;;;6.55;2.38;;;21.70;65.70;;;;;;5064107;28;45328;-66
2022/08/29 11:09:07;;;;;;;3.42;1.63;;;22.00;62.50;;;;;;5057009;28;45614;-67
2022/08/29 11:11:39;;;;;;;3.33;1.73;;;21.90;63.40;;;;;;5056101;28;46461;-67
2022/08/29 11:14:12;;;;;;;5.45;1.80;;;21.60;63.80;;;;;;5061285;28;45619;-67
2022/08/29 11:16:45;;;;;;;6.90;1.77;;;21.60;63.70;;;;;;5061606;28;45308;-67
2022/08/29 11:19:20;;;;;;;6.80;1.88;;;21.60;62.90;;;;;;5062504;28;45383;-67
2022/08/29 11:21:51;;;;;;;9.38;1.65;;;21.60;64.20;;;;;;5062955;28;47201;-67
2022/08/29 11:24:19;;;;;;;7.13;1.90;;;21.80;63.80;;;;;;5063207;28;45242;-67
2022/08/29 11:26:56;;;;;;;6.05;1.80;;;21.80;62.70;;;;;;5062996;28;45324;-66
2022/08/29 11:29:32;;;;;;;5.40;1.40;;;21.90;63.50;;;;;;5064138;28;45360;-67
2022/08/29 11:32:04;;;;;;;4.25;1.60;;;22.00;63.30;;;;;;5064205;28;45368;-67
2022/08/29 11:34:41;;;;;;;6.65;1.95;;;21.90;63.30;;;;;;5056988;28;45411;-67
2022/08/29 11:37:55;;;;;;;4.63;2.08;;;21.90;63.70;;;;;;5063969;28;45416;-66
2022/08/29 11:40:40;;;;;;;2.75;1.40;;;21.90;63.80;;;;;;4958336;28;45412;-67
2022/08/29 11:43:12;;;;;;;5.00;1.90;;;21.80;62.50;;;;;;4974715;28;45622;-67
2022/08/29 11:45:42;;;;;;;5.20;1.80;;;21.70;64.30;;;;;;5035273;28;45380;-67
2022/08/29 11:48:30;;;;;;;6.45;1.70;;;21.50;63.60;;;;;;5062618;28;45479;-66
2022/08/29 11:50:58;;;;;;;3.75;1.50;;;21.70;61.70;;;;;;5062496;28;45416;-66
2022/08/29 11:53:32;;;;;;;6.15;1.75;;;21.50;64.40;;;;;;5061738;28;46140;-67
2022/08/29 11:56:23;;;;;;;3.70;1.60;;;21.70;63.70;;;;;;5057536;28;45398;-67
2022/08/29 11:58:52;;;;;;;13.00;2.35;;;21.80;62.10;;;;;;5062446;28;45361;-67
2022/08/29 12:01:59;;;;;;;7.70;1.83;;;21.70;61.90;;;;;;5062390;28;45544;-67
2022/08/29 12:04:55;;;;;;;4.07;1.90;;;21.80;63.00;;;;;;5031630;28;47498;-67
2022/08/29 12:07:33;;;;;;;9.85;2.20;;;21.90;63.80;;;;;;5062200;28;45388;-66
2022/08/29 12:10:02;;;;;;;10.88;2.28;;;21.30;60.40;;;;;;5058694;28;45476;-66
2022/08/29 12:12:48;;;;;;;6.65;1.92;;;21.10;61.90;;;;;;5054681;28;45294;-67
2022/08/29 12:15:51;;;;;;;6.05;2.00;;;20.90;60.70;;;;;;5053737;28;46305;-67
2022/08/29 12:18:42;;;;;;;4.07;1.50;;;20.80;62.40;;;;;;5060817;28;45427;-67
2022/08/29 12:21:48;;;;;;;6.22;1.42;;;21.30;64.90;;;;;;5062076;28;45436;-67
2022/08/29 12:24:40;;;;;;;4.20;1.75;;;22.20;63.60;;;;;;5054293;28;45709;-66
2022/08/29 12:27:23;;;;;;;6.85;1.90;;;22.40;60.20;;;;;;5057119;28;46182;-67
2022/08/29 12:29:53;;;;;;;6.28;1.98;;;21.30;59.20;;;;;;5061734;28;45277;-67
2022/08/29 12:32:47;;;;;;;3.50;1.92;;;21.20;60.10;;;;;;5061797;28;45282;-66
2022/08/29 12:35:58;;;;;;;5.45;2.08;;;21.30;58.80;;;;;;5058382;28;45299;-66
2022/08/29 12:38:33;;;;;;;6.60;1.75;;;21.70;60.10;;;;;;5062026;28;46429;-66
2022/08/29 12:41:18;;;;;;;10.00;2.20;;;21.40;58.90;;;;;;5061985;28;45435;-66
2022/08/29 12:43:46;;;;;;;6.10;1.90;;;21.80;57.80;;;;;;5056104;28;45397;-66
2022/08/29 12:46:22;;;;;;;6.53;1.60;;;21.70;57.10;;;;;;5062351;28;45253;-66
2022/08/29 12:48:58;;;;;;;5.78;1.67;;;21.20;59.10;;;;;;5049089;28;47502;-66
2022/08/29 12:51:33;;;;;;;7.75;2.25;;;21.00;59.60;;;;;;5061051;28;45299;-66
2022/08/29 12:54:00;;;;;;;6.03;1.90;;;21.50;60.30;;;;;;5064289;28;45382;-67
2022/08/29 12:56:27;;;;;;;3.22;1.52;;;21.80;57.40;;;;;;5054896;28;45328;-66
2022/08/29 12:58:56;;;;;;;5.65;1.63;;;22.10;61.40;;;;;;5061869;28;48105;-67
2022/08/29 13:01:28;;;;;;;4.90;1.70;;;22.20;55.30;;;;;;5061194;28;45348;-66
2022/08/29 13:03:59;;;;;;;7.22;1.60;;;21.60;55.80;;;;;;5061846;28;45383;-67
2022/08/29 13:06:27;;;;;;;7.20;1.65;;;21.50;57.00;;;;;;5061008;28;45218;-67
2022/08/29 13:08:54;;;;;;;5.63;1.95;;;21.20;57.70;;;;;;5057160;28;48125;-67